createdAt,value
2019-03-21T00:00:02.335Z,3.40
2019-03-21T00:03:26.283Z,3.50
2019-03-21T00:06:50.093Z,3.50
2019-03-21T00:10:32.316Z,3.50
2019-03-21T00:14:06.428Z,3.50
2019-03-21T00:17:30.699Z,3.40
2019-03-21T00:20:54.613Z,3.40
2019-03-21T00:24:18.574Z,3.40
2019-03-21T00:27:42.277Z,3.50
2019-03-21T00:31:06.342Z,3.50
2019-03-21T00:34:30.170Z,3.60
2019-03-21T00:37:54.093Z,3.50
2019-03-21T00:41:17.799Z,3.50
2019-03-21T00:44:41.588Z,3.50
2019-03-21T00:48:08.035Z,3.50
2019-03-21T00:51:31.805Z,3.50
2019-03-21T00:54:55.584Z,3.50
2019-03-21T00:58:19.330Z,3.50
2019-03-21T01:01:43.195Z,3.50
2019-03-21T01:05:10.122Z,3.50
2019-03-21T01:08:34.034Z,3.40
2019-03-21T01:11:57.798Z,3.30
2019-03-21T01:15:21.721Z,3.20
2019-03-21T01:18:47.543Z,3.10
2019-03-21T01:22:11.323Z,3.00
2019-03-21T01:25:50.662Z,3.00
2019-03-21T01:29:14.511Z,2.90
2019-03-21T01:32:38.321Z,2.80
2019-03-21T01:36:03.370Z,2.70
2019-03-21T01:39:27.176Z,2.60
2019-03-21T01:42:51.058Z,2.60
2019-03-21T01:46:19.900Z,2.60
2019-03-21T01:49:43.665Z,2.70
2019-03-21T01:53:07.510Z,2.60
2019-03-21T01:56:31.687Z,2.70
2019-03-21T01:59:55.540Z,2.70
2019-03-21T02:03:19.229Z,2.70
2019-03-21T02:06:43.040Z,2.60
2019-03-21T02:10:13.298Z,2.50
2019-03-21T02:13:37.185Z,2.50
2019-03-21T02:17:00.875Z,2.40
2019-03-21T02:20:26.482Z,2.40
2019-03-21T02:23:50.359Z,2.50
2019-03-21T02:27:14.037Z,2.60
2019-03-21T02:30:39.935Z,2.60
2019-03-21T02:34:03.746Z,2.60
2019-03-21T02:37:27.489Z,2.60
2019-03-21T02:40:53.731Z,2.50
2019-03-21T02:44:17.476Z,2.30
2019-03-21T02:47:41.276Z,2.20
2019-03-21T02:51:06.417Z,2.20
2019-03-21T02:54:30.144Z,2.20
2019-03-21T02:57:54.004Z,2.20
2019-03-21T03:01:18.167Z,2.20
2019-03-21T03:04:41.951Z,2.30
2019-03-21T03:08:09.738Z,2.30
2019-03-21T03:11:33.467Z,2.30
2019-03-21T03:14:57.287Z,2.30
2019-03-21T03:18:22.289Z,2.30
2019-03-21T03:21:46.069Z,2.50
2019-03-21T03:25:12.748Z,2.70
2019-03-21T03:28:39.387Z,2.90
2019-03-21T03:32:03.097Z,3.00
2019-03-21T03:35:26.876Z,3.20
2019-03-21T03:38:50.846Z,3.30
2019-03-21T03:42:14.555Z,3.40
2019-03-21T03:45:39.747Z,3.50
2019-03-21T03:49:03.660Z,3.60
2019-03-21T03:52:27.518Z,3.60
2019-03-21T03:55:51.429Z,3.70
2019-03-21T03:59:15.082Z,3.70
2019-03-21T04:02:38.853Z,3.80
2019-03-21T04:06:02.885Z,3.80
2019-03-21T04:09:27.219Z,3.80
2019-03-21T04:12:51.027Z,3.90
2019-03-21T04:16:14.757Z,3.90
2019-03-21T04:19:38.536Z,4.00
2019-03-21T04:23:02.640Z,4.00
2019-03-21T04:26:29.588Z,4.00
2019-03-21T04:29:53.296Z,4.00
2019-03-21T04:33:17.275Z,4.00
2019-03-21T04:36:41.014Z,4.00
2019-03-21T04:40:07.777Z,4.00
2019-03-21T04:43:31.538Z,4.10
2019-03-21T04:46:55.319Z,4.00
2019-03-21T04:50:37.371Z,4.10
2019-03-21T04:54:01.244Z,4.10
2019-03-21T04:57:24.960Z,4.10
2019-03-21T05:00:54.099Z,4.10
2019-03-21T05:04:17.813Z,4.10
2019-03-21T05:07:41.688Z,4.10
2019-03-21T05:11:05.529Z,4.20
2019-03-21T05:14:29.754Z,4.30
2019-03-21T05:18:02.063Z,4.30
2019-03-21T05:21:25.868Z,4.30
2019-03-21T05:24:49.761Z,4.30
2019-03-21T05:28:13.525Z,4.40
2019-03-21T05:31:37.868Z,4.50
2019-03-21T05:35:01.868Z,4.50
2019-03-21T05:38:28.106Z,4.60
2019-03-21T05:41:52.136Z,4.60
2019-03-21T05:45:18.879Z,4.60
2019-03-21T05:48:42.610Z,4.70
2019-03-21T05:52:07.081Z,4.70
2019-03-21T05:55:31.067Z,4.80
2019-03-21T05:58:54.793Z,4.80
2019-03-21T06:02:18.691Z,5.00
2019-03-21T06:05:49.549Z,5.00
2019-03-21T06:09:19.438Z,5.10
2019-03-21T06:12:42.149Z,5.10
2019-03-21T06:16:11.981Z,5.10
2019-03-21T06:19:41.843Z,5.20
2019-03-21T06:23:23.411Z,5.20
2019-03-21T06:26:52.774Z,5.20
2019-03-21T06:30:16.633Z,5.20
2019-03-21T06:33:40.462Z,5.20
2019-03-21T06:37:04.223Z,5.20
2019-03-21T06:40:28.075Z,5.10
2019-03-21T06:43:56.186Z,5.20
2019-03-21T06:47:20.359Z,5.20
2019-03-21T06:50:44.634Z,5.20
2019-03-21T06:54:08.803Z,5.20
2019-03-21T06:57:32.989Z,5.20
2019-03-21T07:00:59.176Z,5.20
2019-03-21T07:04:25.682Z,5.30
2019-03-21T07:07:52.638Z,5.30
2019-03-21T07:11:16.442Z,5.30
2019-03-21T07:14:41.871Z,5.40
2019-03-21T07:18:08.373Z,5.40
2019-03-21T07:21:32.091Z,5.50
2019-03-21T07:24:56.018Z,5.60
2019-03-21T07:28:19.813Z,5.60
2019-03-21T07:31:43.591Z,5.60
2019-03-21T07:35:08.398Z,5.70
2019-03-21T07:38:32.158Z,5.80
2019-03-21T07:41:55.948Z,5.90
2019-03-21T07:45:19.730Z,5.90
2019-03-21T07:48:43.534Z,6.00
2019-03-21T07:52:09.616Z,6.00
2019-03-21T07:55:33.385Z,6.10
2019-03-21T07:58:57.963Z,6.20
2019-03-21T08:02:21.882Z,6.30
2019-03-21T08:05:45.820Z,6.30
2019-03-21T08:09:09.544Z,6.30
2019-03-21T08:12:33.193Z,6.40
2019-03-21T08:15:57.163Z,6.50
2019-03-21T08:19:21.136Z,6.60
2019-03-21T08:22:44.986Z,6.60
2019-03-21T08:26:08.736Z,6.70
2019-03-21T08:29:32.629Z,6.90
2019-03-21T08:32:56.866Z,6.90
2019-03-21T08:36:20.703Z,7.00
2019-03-21T08:39:44.491Z,6.90
2019-03-21T08:43:12.711Z,7.00
2019-03-21T08:46:36.751Z,7.10
2019-03-21T08:50:00.645Z,7.10
2019-03-21T08:53:24.375Z,7.10
2019-03-21T08:56:48.155Z,7.10
2019-03-21T09:00:14.215Z,7.30
2019-03-21T09:03:37.958Z,7.50
2019-03-21T09:07:01.705Z,7.80
2019-03-21T09:10:25.543Z,7.70
2019-03-21T09:13:49.471Z,7.80
2019-03-21T09:17:13.185Z,8.00
2019-03-21T09:20:36.956Z,7.90
2019-03-21T09:24:00.856Z,8.00
2019-03-21T09:27:24.605Z,8.10
2019-03-21T09:30:50.472Z,8.10
2019-03-21T09:34:13.901Z,8.10
2019-03-21T09:37:37.677Z,8.00
2019-03-21T09:41:01.439Z,8.00
2019-03-21T09:44:27.077Z,8.00
2019-03-21T09:47:52.425Z,8.00
2019-03-21T09:51:16.177Z,7.90
2019-03-21T09:54:40.087Z,8.00
2019-03-21T09:58:05.633Z,8.00
2019-03-21T10:01:29.383Z,8.10
2019-03-21T10:04:53.126Z,8.30
2019-03-21T10:08:16.991Z,8.50
2019-03-21T10:11:43.535Z,8.50
2019-03-21T10:15:07.506Z,8.40
2019-03-21T10:18:31.286Z,8.40
2019-03-21T10:21:55.011Z,8.50
2019-03-21T10:25:18.775Z,8.30
2019-03-21T10:28:42.693Z,8.30
2019-03-21T10:32:14.236Z,8.50
2019-03-21T10:35:32.738Z,8.60
2019-03-21T10:38:56.640Z,8.50
2019-03-21T10:42:20.604Z,8.60
2019-03-21T10:45:44.356Z,8.50
2019-03-21T10:49:08.107Z,8.50
2019-03-21T10:52:32.044Z,8.60
2019-03-21T10:55:55.783Z,8.90
2019-03-21T10:59:19.763Z,9.20
2019-03-21T11:02:43.513Z,9.00
2019-03-21T11:06:07.355Z,9.10
2019-03-21T11:09:31.854Z,9.20
2019-03-21T11:12:55.714Z,9.30
2019-03-21T11:16:19.478Z,9.00
2019-03-21T11:19:43.356Z,8.90
2019-03-21T11:23:07.721Z,9.10
2019-03-21T11:26:31.569Z,9.30
2019-03-21T11:29:55.318Z,9.20
2019-03-21T11:33:19.306Z,9.20
2019-03-21T11:36:43.049Z,9.20
2019-03-21T11:40:06.940Z,9.30
2019-03-21T11:43:31.755Z,9.60
2019-03-21T11:46:55.692Z,9.70
2019-03-21T11:50:19.517Z,9.50
2019-03-21T11:53:43.264Z,9.40
2019-03-21T11:57:07.086Z,9.70
2019-03-21T12:00:43.013Z,9.70
2019-03-21T12:03:56.715Z,9.70
2019-03-21T12:07:20.556Z,9.80
2019-03-21T12:10:44.331Z,10.00
2019-03-21T12:14:08.070Z,10.10
2019-03-21T12:17:31.936Z,10.00
2019-03-21T12:20:55.631Z,10.30
2019-03-21T12:24:19.551Z,10.60
2019-03-21T12:27:43.231Z,10.80
2019-03-21T12:31:07.114Z,10.80
2019-03-21T12:34:30.989Z,11.10
2019-03-21T12:37:54.736Z,11.20
2019-03-21T12:41:18.549Z,10.90
2019-03-21T12:44:42.465Z,11.00
2019-03-21T12:48:06.359Z,10.70
2019-03-21T12:51:30.109Z,10.30
2019-03-21T12:54:54.011Z,10.00
2019-03-21T12:58:18.151Z,9.80
2019-03-21T13:01:41.917Z,9.60
2019-03-21T13:05:08.036Z,9.50
2019-03-21T13:08:34.030Z,9.40
2019-03-21T13:11:57.609Z,9.20
2019-03-21T13:15:29.888Z,9.10
2019-03-21T13:18:50.422Z,8.90
2019-03-21T13:22:16.645Z,8.90
2019-03-21T13:25:40.669Z,8.80
2019-03-21T13:29:04.653Z,8.80
2019-03-21T13:32:28.458Z,8.80
2019-03-21T13:35:52.548Z,8.90
2019-03-21T13:39:16.458Z,8.90
2019-03-21T13:42:41.018Z,9.10
2019-03-21T13:46:04.895Z,9.20
2019-03-21T13:49:28.738Z,9.20
2019-03-21T13:53:03.908Z,9.20
2019-03-21T13:56:17.963Z,9.20
2019-03-21T13:59:41.843Z,9.10
2019-03-21T14:03:05.809Z,9.10
2019-03-21T14:06:30.045Z,9.10
2019-03-21T14:09:53.881Z,9.10
2019-03-21T14:13:17.599Z,9.00
2019-03-21T14:16:41.341Z,8.90
2019-03-21T14:20:08.009Z,9.00
2019-03-21T14:23:42.632Z,9.00
2019-03-21T14:26:57.983Z,8.80
2019-03-21T14:30:21.818Z,8.80
2019-03-21T14:33:45.799Z,8.80
2019-03-21T14:37:09.523Z,8.80
2019-03-21T14:40:35.251Z,8.80
2019-03-21T14:43:59.151Z,8.80
2019-03-21T14:47:23.241Z,8.90
2019-03-21T14:50:47.134Z,8.90
2019-03-21T14:54:11.232Z,8.90
2019-03-21T14:57:35.015Z,9.00
2019-03-21T15:00:58.871Z,9.00
2019-03-21T15:04:22.839Z,9.10
2019-03-21T15:07:46.673Z,9.30
2019-03-21T15:11:16.941Z,9.30
2019-03-21T15:14:37.168Z,9.30
2019-03-21T15:18:01.043Z,9.40
2019-03-21T15:21:25.160Z,9.40
2019-03-21T15:24:48.991Z,9.60
2019-03-21T15:28:12.824Z,9.60
2019-03-21T15:31:36.580Z,9.60
2019-03-21T15:35:00.478Z,9.50
2019-03-21T15:38:24.234Z,9.40
2019-03-21T15:41:48.127Z,9.30
2019-03-21T15:45:22.626Z,9.30
2019-03-21T15:48:43.588Z,9.20
2019-03-21T15:52:07.432Z,9.20
2019-03-21T15:55:31.348Z,9.20
2019-03-21T15:58:55.159Z,9.10
2019-03-21T16:02:18.891Z,9.00
2019-03-21T16:05:44.769Z,8.90
2019-03-21T16:09:08.766Z,8.90
2019-03-21T16:12:32.648Z,8.80
2019-03-21T16:15:56.430Z,8.70
2019-03-21T16:19:20.312Z,8.60
2019-03-21T16:22:44.071Z,8.60
2019-03-21T16:26:07.996Z,8.50
2019-03-21T16:29:31.756Z,8.50
2019-03-21T16:32:55.603Z,8.40
2019-03-21T16:36:19.406Z,8.30
2019-03-21T16:39:43.277Z,8.20
2019-03-21T16:43:07.182Z,8.00
2019-03-21T16:46:31.090Z,7.90
2019-03-21T16:49:55.088Z,7.70
2019-03-21T16:53:19.104Z,7.50
2019-03-21T16:56:42.989Z,7.30
2019-03-21T17:00:09.365Z,7.10
2019-03-21T17:03:33.227Z,6.90
2019-03-21T17:06:57.354Z,6.70
2019-03-21T17:10:21.242Z,6.60
2019-03-21T17:13:45.356Z,6.70
2019-03-21T17:17:09.112Z,6.70
2019-03-21T17:20:33.111Z,6.80
2019-03-21T17:23:59.089Z,6.80
2019-03-21T17:27:22.915Z,6.80
2019-03-21T17:30:46.716Z,6.90
2019-03-21T17:34:10.791Z,6.90
2019-03-21T17:37:34.694Z,6.90
2019-03-21T17:40:58.481Z,6.90
2019-03-21T17:44:22.488Z,6.90
2019-03-21T17:47:46.710Z,7.00
2019-03-21T17:51:11.310Z,7.00
2019-03-21T17:54:41.468Z,7.10
2019-03-21T17:58:04.584Z,7.10
2019-03-21T18:01:31.308Z,7.10
2019-03-21T18:04:55.361Z,7.10
2019-03-21T18:08:19.321Z,7.20
2019-03-21T18:11:43.420Z,7.20
2019-03-21T18:15:07.957Z,7.20
2019-03-21T18:18:32.012Z,7.10
2019-03-21T18:21:58.136Z,7.00
2019-03-21T18:25:23.092Z,6.80
2019-03-21T18:28:47.072Z,6.90
2019-03-21T18:32:10.954Z,6.90
2019-03-21T18:35:34.950Z,6.90
2019-03-21T18:39:00.000Z,6.90
2019-03-21T18:42:24.228Z,6.90
2019-03-21T18:45:48.365Z,6.90
2019-03-21T18:49:12.739Z,6.90
2019-03-21T18:52:36.882Z,6.80
2019-03-21T18:56:00.702Z,6.80
2019-03-21T18:59:25.324Z,6.70
2019-03-21T19:02:49.450Z,6.80
2019-03-21T19:06:16.500Z,6.80
2019-03-21T19:09:40.344Z,6.90
2019-03-21T19:13:04.193Z,6.80
2019-03-21T19:16:28.046Z,6.70
2019-03-21T19:19:51.785Z,6.60
2019-03-21T19:23:15.556Z,6.60
2019-03-21T19:26:39.491Z,6.60
2019-03-21T19:30:04.147Z,6.60
2019-03-21T19:33:28.874Z,6.50
2019-03-21T19:36:53.255Z,6.30
2019-03-21T19:40:18.743Z,6.10
2019-03-21T19:43:47.621Z,6.10
2019-03-21T19:47:09.836Z,6.10
2019-03-21T19:50:33.726Z,6.10
2019-03-21T19:53:57.702Z,5.90
2019-03-21T19:57:22.692Z,5.80
2019-03-21T20:00:47.191Z,5.60
2019-03-21T20:04:11.047Z,5.40
2019-03-21T20:07:34.844Z,5.30
2019-03-21T20:10:58.616Z,5.20
2019-03-21T20:14:23.339Z,5.10
2019-03-21T20:17:47.217Z,5.10
2019-03-21T20:21:10.965Z,5.10
2019-03-21T20:24:35.089Z,5.20
2019-03-21T20:27:59.729Z,5.20
2019-03-21T20:31:23.544Z,5.20
2019-03-21T20:34:47.366Z,5.30
2019-03-21T20:38:12.422Z,5.20
2019-03-21T20:41:36.430Z,5.20
2019-03-21T20:45:00.417Z,5.20
2019-03-21T20:48:29.010Z,5.10
2019-03-21T20:51:52.820Z,5.00
2019-03-21T20:55:16.621Z,4.90
2019-03-21T20:58:41.059Z,4.80
2019-03-21T21:02:04.833Z,4.80
2019-03-21T21:05:28.625Z,4.80
2019-03-21T21:08:52.558Z,4.70
2019-03-21T21:12:16.425Z,4.60
2019-03-21T21:15:40.602Z,4.50
2019-03-21T21:19:04.670Z,4.50
2019-03-21T21:22:28.733Z,4.60
2019-03-21T21:26:04.790Z,4.50
2019-03-21T21:29:19.616Z,4.50
2019-03-21T21:32:43.651Z,4.40
2019-03-21T21:36:07.744Z,4.30
2019-03-21T21:39:33.233Z,4.10
2019-03-21T21:42:57.444Z,4.10
2019-03-21T21:46:21.406Z,4.10
2019-03-21T21:49:45.316Z,4.20
2019-03-21T21:53:09.164Z,4.30
2019-03-21T21:56:33.732Z,4.30
2019-03-21T21:59:57.742Z,4.40
2019-03-21T22:03:21.868Z,4.40
2019-03-21T22:06:45.917Z,4.20
2019-03-21T22:10:12.488Z,4.10
2019-03-21T22:13:36.671Z,4.00
2019-03-21T22:17:01.277Z,4.00
2019-03-21T22:20:25.254Z,4.10
2019-03-21T22:23:49.453Z,4.10
2019-03-21T22:27:18.112Z,4.10
2019-03-21T22:30:42.104Z,4.30
2019-03-21T22:34:05.861Z,4.50
2019-03-21T22:37:29.742Z,4.60
2019-03-21T22:40:53.732Z,4.70
2019-03-21T22:44:17.516Z,4.90
2019-03-21T22:47:41.425Z,5.10
2019-03-21T22:51:05.258Z,5.30
2019-03-21T22:54:29.594Z,5.40
2019-03-21T22:57:53.527Z,5.60
2019-03-21T23:01:17.386Z,5.70
2019-03-21T23:04:41.218Z,5.80
2019-03-21T23:08:05.061Z,5.90
2019-03-21T23:11:29.103Z,6.10
2019-03-21T23:14:52.955Z,6.20
2019-03-21T23:18:16.730Z,6.30
2019-03-21T23:21:40.546Z,6.40
2019-03-21T23:25:05.508Z,6.50
2019-03-21T23:28:29.425Z,6.60
2019-03-21T23:31:53.181Z,6.60
2019-03-21T23:35:17.191Z,6.60
2019-03-21T23:38:41.038Z,6.70
2019-03-21T23:42:05.038Z,6.80
2019-03-21T23:45:28.883Z,6.90
2019-03-21T23:48:52.808Z,6.90
2019-03-21T23:52:16.896Z,7.00
2019-03-21T23:55:40.623Z,7.00
2019-03-21T23:59:04.431Z,7.10
